createdAt,value
2022-08-12T00:00:14.582Z,26.93
2022-08-12T00:03:02.261Z,26.94
2022-08-12T00:06:04.008Z,26.95
2022-08-12T00:08:55.017Z,27.00
2022-08-12T00:11:45.267Z,27.06
2022-08-12T00:14:34.555Z,27.10
2022-08-12T00:17:23.495Z,27.17
2022-08-12T00:20:12.428Z,27.26
2022-08-12T00:23:00.445Z,27.34
2022-08-12T00:26:23.822Z,27.45
2022-08-12T00:29:14.728Z,27.51
2022-08-12T00:32:06.098Z,27.59
2022-08-12T00:34:55.274Z,27.68
2022-08-12T00:37:45.625Z,27.73
2022-08-12T00:40:35.141Z,27.75
2022-08-12T00:43:07.806Z,27.80
2022-08-12T00:45:58.334Z,27.84
2022-08-12T00:48:29.589Z,27.87
2022-08-12T00:51:02.982Z,27.89
2022-08-12T00:53:35.799Z,27.93
2022-08-12T00:56:08.936Z,27.99
2022-08-12T00:58:48.256Z,28.04
2022-08-12T01:01:20.279Z,28.08
2022-08-12T01:04:17.902Z,28.12
2022-08-12T01:07:07.918Z,28.10
2022-08-12T01:09:56.811Z,28.08
2022-08-12T01:12:29.124Z,28.01
2022-08-12T01:14:59.938Z,28.01
2022-08-12T01:17:32.442Z,28.02
2022-08-12T01:20:10.271Z,28.05
2022-08-12T01:22:56.830Z,28.09
2022-08-12T01:25:32.389Z,28.13
2022-08-12T01:28:07.865Z,28.14
2022-08-12T01:30:38.987Z,28.18
2022-08-12T01:33:13.385Z,28.18
2022-08-12T01:35:57.833Z,28.23
2022-08-12T01:38:40.194Z,28.24
2022-08-12T01:41:15.426Z,28.28
2022-08-12T01:43:47.359Z,28.32
2022-08-12T01:46:43.554Z,28.39
2022-08-12T01:49:14.237Z,28.49
2022-08-12T01:52:20.547Z,28.56
2022-08-12T01:54:46.696Z,28.60
2022-08-12T01:57:58.867Z,28.63
2022-08-12T02:00:35.623Z,28.67
2022-08-12T02:04:03.061Z,28.70
2022-08-12T02:07:02.503Z,28.76
2022-08-12T02:10:50.315Z,28.82
2022-08-12T02:13:49.641Z,28.85
2022-08-12T02:16:31.750Z,28.85
2022-08-12T02:19:44.986Z,28.87
2022-08-12T02:22:42.468Z,28.88
2022-08-12T02:25:33.548Z,28.88
2022-08-12T02:28:07.850Z,28.88
2022-08-12T02:30:42.913Z,28.87
2022-08-12T02:33:18.497Z,28.89
2022-08-12T02:35:49.979Z,28.89
2022-08-12T02:38:23.261Z,28.91
2022-08-12T02:40:59.354Z,28.95
2022-08-12T02:43:46.395Z,28.98
2022-08-12T02:46:21.123Z,29.00
2022-08-12T02:48:56.119Z,29.04
2022-08-12T02:51:33.287Z,29.09
2022-08-12T02:54:06.702Z,29.10
2022-08-12T02:56:40.196Z,29.09
2022-08-12T02:59:17.988Z,29.10
2022-08-12T03:02:01.000Z,29.10
2022-08-12T03:04:55.707Z,29.11
2022-08-12T03:07:56.565Z,29.11
2022-08-12T03:10:34.699Z,29.11
2022-08-12T03:13:10.082Z,29.11
2022-08-12T03:15:41.865Z,29.11
2022-08-12T03:18:34.635Z,29.13
2022-08-12T03:21:09.176Z,29.11
2022-08-12T03:24:10.694Z,29.14
2022-08-12T03:27:00.175Z,29.14
2022-08-12T03:29:50.177Z,29.17
2022-08-12T03:32:35.614Z,29.19
2022-08-12T03:35:43.775Z,29.20
2022-08-12T03:38:17.683Z,29.20
2022-08-12T03:41:21.993Z,29.28
2022-08-12T03:44:25.926Z,29.29
2022-08-12T03:47:42.571Z,29.26
2022-08-12T03:50:54.808Z,29.25
2022-08-12T03:54:11.328Z,29.25
2022-08-12T03:57:03.522Z,29.25
2022-08-12T04:00:00.721Z,29.25
2022-08-12T04:02:43.675Z,29.27
2022-08-12T04:05:23.013Z,29.28
2022-08-12T04:07:57.913Z,29.32
2022-08-12T04:10:50.800Z,29.34
2022-08-12T04:13:27.889Z,29.38
2022-08-12T04:16:00.130Z,29.44
2022-08-12T04:18:31.730Z,29.51
2022-08-12T04:21:03.782Z,29.56
2022-08-12T04:23:35.353Z,29.63
2022-08-12T04:26:07.279Z,29.67
2022-08-12T04:28:40.207Z,29.74
2022-08-12T04:31:10.924Z,29.79
2022-08-12T04:33:43.946Z,29.80
2022-08-12T04:36:14.737Z,29.82
2022-08-12T04:38:46.109Z,29.82
2022-08-12T04:41:17.658Z,29.85
2022-08-12T04:43:59.671Z,29.87
2022-08-12T04:46:34.508Z,29.89
2022-08-12T04:49:07.073Z,29.93
2022-08-12T04:51:38.384Z,29.96
2022-08-12T04:54:09.333Z,29.98
2022-08-12T04:56:39.277Z,30.05
2022-08-12T04:59:09.958Z,30.05
2022-08-12T05:01:40.566Z,30.08
2022-08-12T05:04:28.886Z,30.12
2022-08-12T05:07:16.451Z,30.13
2022-08-12T05:10:00.481Z,30.17
2022-08-12T05:13:00.259Z,30.23
2022-08-12T05:16:04.008Z,30.27
2022-08-12T05:18:45.905Z,30.34
2022-08-12T05:21:18.498Z,30.42
2022-08-12T05:24:08.917Z,30.50
2022-08-12T05:26:39.199Z,30.52
2022-08-12T05:30:08.273Z,30.56
2022-08-12T05:32:04.545Z,30.63
2022-08-12T05:34:36.051Z,30.67
2022-08-12T05:37:06.752Z,30.68
2022-08-12T05:39:37.226Z,30.68
2022-08-12T05:42:07.947Z,30.72
2022-08-12T05:44:38.123Z,30.72
2022-08-12T05:47:08.905Z,30.70
2022-08-12T05:49:42.679Z,30.71
2022-08-12T05:52:12.970Z,30.72
2022-08-12T05:54:57.055Z,30.75
2022-08-12T05:57:28.295Z,30.77
2022-08-12T05:59:58.877Z,30.76
2022-08-12T06:02:29.454Z,30.75
2022-08-12T06:05:01.755Z,30.79
2022-08-12T06:07:59.256Z,30.82
2022-08-12T06:10:32.276Z,30.86
2022-08-12T06:13:04.242Z,30.91
2022-08-12T06:15:39.328Z,30.95
2022-08-12T06:18:16.225Z,31.00
2022-08-12T06:20:53.966Z,31.03
2022-08-12T06:23:33.324Z,31.05
2022-08-12T06:26:21.570Z,31.08
2022-08-12T06:28:54.098Z,31.06
2022-08-12T06:42:04.941Z,31.18
2022-08-12T06:44:45.963Z,31.22
2022-08-12T06:47:18.035Z,31.23
2022-08-12T06:49:55.807Z,31.26
2022-08-12T06:52:38.607Z,31.27
2022-08-12T06:55:17.509Z,31.26
2022-08-12T06:58:10.413Z,31.29
2022-08-12T07:01:04.395Z,31.27
2022-08-12T07:03:35.241Z,31.24
2022-08-12T07:06:08.411Z,31.22
2022-08-12T07:08:38.686Z,31.23
2022-08-12T07:11:15.497Z,31.22
2022-08-12T07:14:12.846Z,31.22
2022-08-12T07:16:55.163Z,31.24
2022-08-12T07:19:26.768Z,31.28
2022-08-12T07:22:15.758Z,31.35
2022-08-12T07:25:06.150Z,31.40
2022-08-12T07:27:44.893Z,31.46
2022-08-12T07:30:16.378Z,31.49
2022-08-12T07:32:51.040Z,31.51
2022-08-12T07:35:22.247Z,31.55
2022-08-12T07:38:41.464Z,31.60
2022-08-12T07:41:20.897Z,31.67
2022-08-12T07:43:55.333Z,31.69
2022-08-12T07:46:32.764Z,31.68
2022-08-12T07:49:26.262Z,31.67
2022-08-12T07:51:56.694Z,31.63
2022-08-12T07:59:06.961Z,31.59
2022-08-12T08:01:40.138Z,31.56
2022-08-12T08:04:29.049Z,31.56
2022-08-12T08:07:01.754Z,31.64
2022-08-12T08:09:32.011Z,31.69
2022-08-12T08:12:20.216Z,31.70
2022-08-12T08:14:52.737Z,31.68
2022-08-12T08:17:22.968Z,31.65
2022-08-12T08:20:02.544Z,31.59
2022-08-12T08:22:41.950Z,31.56
2022-08-12T08:25:34.252Z,31.58
2022-08-12T08:28:10.969Z,31.60
2022-08-12T08:30:46.844Z,31.59
2022-08-12T08:33:24.422Z,31.56
2022-08-12T08:36:16.188Z,31.53
2022-08-12T08:38:56.082Z,31.51
2022-08-12T08:42:13.870Z,31.49
2022-08-12T08:44:39.518Z,31.50
2022-08-12T08:47:13.127Z,31.50
2022-08-12T08:49:43.958Z,31.50
2022-08-12T08:52:40.043Z,31.45
2022-08-12T08:55:06.043Z,31.41
2022-08-12T08:57:43.809Z,31.37
2022-08-12T09:00:21.977Z,31.30
2022-08-12T09:02:59.136Z,31.27
2022-08-12T09:06:01.540Z,31.26
2022-08-12T09:12:07.182Z,31.21
2022-08-12T09:14:29.560Z,31.15
2022-08-12T09:17:00.511Z,31.08
2022-08-12T09:19:30.747Z,31.01
2022-08-12T09:22:04.805Z,30.94
2022-08-12T09:24:35.066Z,30.86
2022-08-12T09:27:07.642Z,30.81
2022-08-12T09:30:11.154Z,30.77
2022-08-12T09:33:04.680Z,30.71
2022-08-12T09:35:28.531Z,30.67
2022-08-12T09:38:28.538Z,30.65
2022-08-12T09:42:35.179Z,30.60
2022-08-12T09:44:37.942Z,30.54
2022-08-12T09:47:02.457Z,30.50
2022-08-12T09:49:42.665Z,30.46
2022-08-12T09:52:16.881Z,30.44
2022-08-12T09:54:52.781Z,30.40
2022-08-12T09:58:46.680Z,30.36
2022-08-12T10:00:28.243Z,30.31
2022-08-12T10:03:04.054Z,30.26
2022-08-12T10:06:19.627Z,30.21
2022-08-12T10:08:32.223Z,30.19
2022-08-12T10:11:23.949Z,30.16
2022-08-12T10:14:13.321Z,30.13
2022-08-12T10:16:58.887Z,30.11
2022-08-12T10:27:05.696Z,30.05
2022-08-12T10:37:22.632Z,29.91
2022-08-12T10:40:09.898Z,29.88
2022-08-12T10:43:00.997Z,29.86
2022-08-12T10:45:32.495Z,29.85
2022-08-12T10:48:21.905Z,29.83
2022-08-12T10:51:03.434Z,29.81
2022-08-12T10:53:46.022Z,29.80
2022-08-12T10:56:18.982Z,29.80
2022-08-12T10:58:49.723Z,29.75
2022-08-12T11:01:49.138Z,29.74
2022-08-12T11:04:27.908Z,29.72
2022-08-12T11:08:36.243Z,29.68
2022-08-12T11:10:06.347Z,29.64
2022-08-12T11:13:09.040Z,29.63
2022-08-12T11:16:03.692Z,29.60
2022-08-12T11:18:46.987Z,29.56
2022-08-12T11:21:56.734Z,29.54
2022-08-12T11:24:32.185Z,29.51
2022-08-12T11:27:13.410Z,29.47
2022-08-12T11:30:02.000Z,29.43
2022-08-12T11:32:38.750Z,29.40
2022-08-12T11:35:11.615Z,29.36
2022-08-12T11:37:59.355Z,29.31
2022-08-12T11:40:31.595Z,29.31
2022-08-12T11:43:18.753Z,29.27
2022-08-12T11:45:52.867Z,29.23
2022-08-12T11:48:26.981Z,29.20
2022-08-12T11:50:58.029Z,29.17
2022-08-12T11:53:56.977Z,29.13
2022-08-12T11:56:19.305Z,29.12
2022-08-12T12:01:58.643Z,29.11
2022-08-12T12:02:03.035Z,29.07
2022-08-12T12:04:32.216Z,29.06
2022-08-12T12:07:06.729Z,29.03
2022-08-12T12:09:52.722Z,29.01
2022-08-12T12:12:27.219Z,28.99
2022-08-12T12:15:01.604Z,28.94
2022-08-12T12:17:40.111Z,28.95
2022-08-12T12:20:16.470Z,28.93
2022-08-12T12:22:47.481Z,28.91
2022-08-12T12:25:19.891Z,28.88
2022-08-12T12:28:05.144Z,28.91
2022-08-12T12:30:41.088Z,28.89
2022-08-12T12:33:25.524Z,28.83
2022-08-12T12:36:19.903Z,28.84
2022-08-12T12:38:48.183Z,28.83
2022-08-12T12:41:20.838Z,28.77
2022-08-12T12:44:04.536Z,28.79
2022-08-12T12:46:35.978Z,28.77
2022-08-12T12:49:15.334Z,28.76
2022-08-12T12:51:49.137Z,28.70
2022-08-12T12:55:02.581Z,28.65
2022-08-12T12:58:13.771Z,28.61
2022-08-12T13:01:26.801Z,28.55
2022-08-12T13:05:00.133Z,28.54
2022-08-12T13:07:39.533Z,28.47
2022-08-12T13:14:10.323Z,28.42
2022-08-12T13:17:06.321Z,28.44
2022-08-12T13:20:37.441Z,28.40
2022-08-12T13:23:36.124Z,28.39
2022-08-12T13:26:46.310Z,28.38
2022-08-12T13:30:01.992Z,28.35
2022-08-12T13:32:57.169Z,28.30
2022-08-12T13:39:01.112Z,28.28
2022-08-12T13:41:59.504Z,28.23
2022-08-12T13:44:30.794Z,28.19
2022-08-12T13:47:18.367Z,28.11
2022-08-12T13:49:55.034Z,28.10
2022-08-12T13:52:30.050Z,28.06
2022-08-12T13:55:01.807Z,28.01
2022-08-12T13:57:47.149Z,27.99
2022-08-12T14:00:21.005Z,27.97
2022-08-12T14:03:05.905Z,27.94
2022-08-12T14:05:38.865Z,27.93
2022-08-12T14:08:21.348Z,27.92
2022-08-12T14:11:02.137Z,27.88
2022-08-12T14:14:04.682Z,27.89
2022-08-12T14:16:46.553Z,27.85
2022-08-12T14:19:27.096Z,27.85
2022-08-12T14:22:06.194Z,27.85
2022-08-12T14:24:40.739Z,27.83
2022-08-12T14:27:20.015Z,27.77
2022-08-12T14:30:59.834Z,27.77
2022-08-12T14:33:49.291Z,27.71
2022-08-12T14:36:32.317Z,27.61
2022-08-12T14:39:25.289Z,27.58
2022-08-12T14:42:07.305Z,27.52
2022-08-12T14:45:01.747Z,27.46
2022-08-12T14:47:58.724Z,27.47
2022-08-12T14:51:03.088Z,27.46
2022-08-12T14:59:57.068Z,27.37
2022-08-12T15:02:34.012Z,27.33
2022-08-12T15:05:08.792Z,27.33
2022-08-12T15:10:53.975Z,27.29
2022-08-12T15:13:40.347Z,27.26
2022-08-12T15:16:23.765Z,27.24
2022-08-12T15:20:10.113Z,27.19
2022-08-12T15:22:35.448Z,27.18
2022-08-12T15:24:50.731Z,27.14
2022-08-12T15:27:22.153Z,27.10
2022-08-12T15:29:54.189Z,27.07
2022-08-12T15:32:31.798Z,27.07
2022-08-12T15:35:04.053Z,27.00
2022-08-12T15:38:09.100Z,27.05
2022-08-12T15:40:36.768Z,27.06
2022-08-12T15:43:51.170Z,27.09
2022-08-12T15:46:14.987Z,27.10
2022-08-12T15:48:49.202Z,27.12
2022-08-12T15:52:05.279Z,27.12
2022-08-12T15:55:24.347Z,27.09
2022-08-12T15:58:18.753Z,27.09
2022-08-12T16:00:58.527Z,27.07
2022-08-12T16:03:46.371Z,27.05
2022-08-12T16:12:22.305Z,27.00
2022-08-12T16:13:44.239Z,26.89
2022-08-12T16:16:28.017Z,26.89
2022-08-12T16:20:02.850Z,26.85
2022-08-12T16:22:38.605Z,26.84
2022-08-12T16:26:05.486Z,26.81
2022-08-12T16:28:36.461Z,26.84
2022-08-12T16:31:13.258Z,26.85
2022-08-12T16:37:08.965Z,26.86
2022-08-12T16:43:01.821Z,26.83
2022-08-12T16:48:48.481Z,26.86
2022-08-12T16:51:41.771Z,26.84
2022-08-12T16:54:20.286Z,26.84
2022-08-12T16:56:57.553Z,26.80
2022-08-12T16:59:53.000Z,26.81
2022-08-12T17:02:31.635Z,26.78
2022-08-12T17:05:10.425Z,26.78
2022-08-12T17:07:43.519Z,26.76
2022-08-12T17:10:35.908Z,26.75
2022-08-12T17:13:10.691Z,26.70
2022-08-12T17:15:57.367Z,26.69
2022-08-12T17:18:42.667Z,26.68
2022-08-12T17:21:19.829Z,26.67
2022-08-12T17:23:54.770Z,26.68
2022-08-12T17:26:31.583Z,26.67
2022-08-12T17:29:02.795Z,26.66
2022-08-12T17:31:59.821Z,26.61
2022-08-12T17:34:42.338Z,26.61
2022-08-12T17:37:14.334Z,26.61
2022-08-12T17:40:15.598Z,26.60
2022-08-12T17:42:36.821Z,26.62
2022-08-12T17:45:18.429Z,26.60
2022-08-12T17:48:01.939Z,26.59
2022-08-12T17:50:39.114Z,26.59
2022-08-12T17:53:11.124Z,26.56
2022-08-12T17:55:48.125Z,26.57
2022-08-12T17:58:36.808Z,26.56
2022-08-12T18:01:11.077Z,26.48
2022-08-12T18:03:58.179Z,26.42
2022-08-12T18:06:35.876Z,26.36
2022-08-12T18:09:09.789Z,26.34
2022-08-12T18:12:06.675Z,26.33
2022-08-12T18:14:41.136Z,26.26
2022-08-12T18:17:13.338Z,26.22
2022-08-12T18:20:03.815Z,26.22
2022-08-12T18:22:35.025Z,26.17
2022-08-12T18:26:12.405Z,26.16
2022-08-12T18:28:15.106Z,26.14
2022-08-12T18:30:53.044Z,26.12
2022-08-12T18:33:26.930Z,26.07
2022-08-12T18:35:58.329Z,26.04
2022-08-12T18:38:29.381Z,26.01
2022-08-12T18:41:22.013Z,25.99
2022-08-12T18:44:09.467Z,26.01
2022-08-12T18:46:54.525Z,26.01
2022-08-12T18:49:39.284Z,26.05
2022-08-12T18:52:12.108Z,26.07
2022-08-12T18:54:53.981Z,26.09
2022-08-12T18:58:05.772Z,26.11
2022-08-12T19:00:22.103Z,26.13
2022-08-12T19:02:57.057Z,26.17
2022-08-12T19:05:53.367Z,26.18
2022-08-12T19:08:20.146Z,26.20
2022-08-12T19:10:56.342Z,26.20
2022-08-12T19:13:46.562Z,26.20
2022-08-12T19:16:23.029Z,26.21
2022-08-12T19:18:53.759Z,26.21
2022-08-12T19:21:25.101Z,26.21
2022-08-12T19:24:14.066Z,26.20
2022-08-12T19:26:45.891Z,26.22
2022-08-12T19:29:21.192Z,26.21
2022-08-12T19:31:59.306Z,26.20
2022-08-12T19:37:38.771Z,26.18
2022-08-12T19:40:31.514Z,26.17
2022-08-12T19:43:21.116Z,26.16
2022-08-12T19:45:57.121Z,26.14
2022-08-12T19:48:30.671Z,26.13
2022-08-12T19:51:09.233Z,26.10
2022-08-12T19:53:57.403Z,26.09
2022-08-12T19:56:33.657Z,26.09
2022-08-12T19:59:22.889Z,26.04
2022-08-12T20:02:02.816Z,26.04
2022-08-12T20:04:38.876Z,26.04
2022-08-12T20:07:23.496Z,26.03
2022-08-12T20:09:55.628Z,26.03
2022-08-12T20:12:34.651Z,26.01
2022-08-12T20:15:10.552Z,26.00
2022-08-12T20:17:51.391Z,26.00
2022-08-12T20:20:28.208Z,25.98
2022-08-12T20:22:59.091Z,25.98
2022-08-12T20:25:52.550Z,25.98
2022-08-12T20:28:20.309Z,25.97
2022-08-12T20:30:59.273Z,25.96
2022-08-12T20:33:32.567Z,25.96
2022-08-12T20:36:40.621Z,25.96
2022-08-12T20:39:23.811Z,25.94
2022-08-12T20:42:08.923Z,25.91
2022-08-12T20:44:42.174Z,25.90
2022-08-12T20:47:20.026Z,25.90
2022-08-12T20:49:55.503Z,25.91
2022-08-12T20:52:30.049Z,25.89
2022-08-12T20:55:15.897Z,25.88
2022-08-12T20:58:04.904Z,25.89
2022-08-12T21:00:35.529Z,25.91
2022-08-12T21:03:23.684Z,25.85
2022-08-12T21:06:14.018Z,25.85
2022-08-12T21:08:45.247Z,25.86
2022-08-12T21:11:15.676Z,25.87
2022-08-12T21:13:47.152Z,25.85
2022-08-12T21:16:16.845Z,25.84
2022-08-12T21:19:08.164Z,25.83
2022-08-12T21:21:50.534Z,25.79
2022-08-12T21:24:25.169Z,25.80
2022-08-12T21:27:07.442Z,25.78
2022-08-12T21:29:55.400Z,25.76
2022-08-12T21:32:40.504Z,25.70
2022-08-12T21:35:15.844Z,25.74
2022-08-12T21:37:52.981Z,25.72
2022-08-12T21:40:37.452Z,25.69
2022-08-12T21:43:17.831Z,25.70
2022-08-12T21:46:00.366Z,25.70
2022-08-12T21:48:32.728Z,25.67
2022-08-12T21:51:03.422Z,25.65
2022-08-12T21:54:07.583Z,25.66
2022-08-12T21:56:42.262Z,25.65
2022-08-12T21:59:16.362Z,25.64
2022-08-12T22:01:51.162Z,25.65
2022-08-12T22:04:41.244Z,25.64
2022-08-12T22:07:30.114Z,25.65
2022-08-12T22:10:28.400Z,25.67
2022-08-12T22:13:01.166Z,25.64
2022-08-12T22:15:32.026Z,25.67
2022-08-12T22:18:06.278Z,25.70
2022-08-12T22:20:41.463Z,25.74
2022-08-12T22:23:21.774Z,25.75
2022-08-12T22:26:07.542Z,25.79
2022-08-12T22:29:04.021Z,25.82
2022-08-12T22:31:35.030Z,25.83
2022-08-12T22:34:05.997Z,25.86
2022-08-12T22:36:37.369Z,25.86
2022-08-12T22:39:10.143Z,25.92
2022-08-12T22:42:02.372Z,25.96
2022-08-12T22:44:54.334Z,25.95
2022-08-12T22:47:54.998Z,25.99
2022-08-12T22:50:30.212Z,26.01
2022-08-12T22:53:17.477Z,26.06
2022-08-12T22:56:05.761Z,26.12
2022-08-12T22:58:41.262Z,26.16
2022-08-12T23:01:13.832Z,26.16
2022-08-12T23:03:54.000Z,26.18
2022-08-12T23:06:27.150Z,26.20
2022-08-12T23:08:58.374Z,26.22
2022-08-12T23:11:36.160Z,26.23
2022-08-12T23:14:12.728Z,26.27
2022-08-12T23:16:43.784Z,26.30
2022-08-12T23:19:17.930Z,26.34
2022-08-12T23:22:05.438Z,26.37
2022-08-12T23:24:55.766Z,26.40
2022-08-12T23:27:52.014Z,26.44
2022-08-12T23:30:32.256Z,26.48
2022-08-12T23:33:19.924Z,26.52
2022-08-12T23:36:03.378Z,26.55
2022-08-12T23:38:35.789Z,26.59
2022-08-12T23:41:06.962Z,26.65
2022-08-12T23:43:42.854Z,26.69
2022-08-12T23:46:18.678Z,26.73
2022-08-12T23:48:54.108Z,26.76
2022-08-12T23:51:26.488Z,26.79
2022-08-12T23:54:08.323Z,26.85
2022-08-12T23:56:43.794Z,26.90
2022-08-12T23:59:14.106Z,26.92
